createdAt,value
2022-11-20T00:00:18.689Z,61.38
2022-11-20T00:02:45.559Z,60.45
2022-11-20T00:05:12.388Z,57.55
2022-11-20T00:07:39.252Z,56.63
2022-11-20T00:10:06.460Z,55.15
2022-11-20T00:12:33.317Z,54.80
2022-11-20T00:15:00.138Z,54.70
2022-11-20T00:17:27.403Z,52.40
2022-11-20T00:19:54.245Z,51.67
2022-11-20T00:22:21.280Z,49.03
2022-11-20T00:24:48.104Z,49.67
2022-11-20T00:27:14.897Z,51.58
2022-11-20T00:29:41.719Z,49.05
2022-11-20T00:32:08.572Z,48.67
2022-11-20T00:34:35.392Z,46.15
2022-11-20T00:37:02.201Z,45.80
2022-11-20T00:39:29.036Z,45.90
2022-11-20T00:41:55.826Z,44.35
2022-11-20T00:44:22.659Z,44.20
2022-11-20T00:46:49.500Z,43.38
2022-11-20T00:49:16.327Z,43.28
2022-11-20T00:51:43.274Z,43.33
2022-11-20T00:54:10.144Z,43.60
2022-11-20T00:56:37.018Z,42.05
2022-11-20T00:59:03.981Z,40.25
2022-11-20T01:01:31.482Z,41.25
2022-11-20T01:04:00.449Z,40.63
2022-11-20T01:06:30.133Z,40.58
2022-11-20T01:08:59.691Z,39.88
2022-11-20T01:11:30.079Z,40.83
2022-11-20T01:13:58.460Z,38.65
2022-11-20T01:16:33.792Z,37.65
2022-11-20T01:19:03.433Z,37.28
2022-11-20T01:23:58.860Z,36.80
2022-11-20T01:26:28.328Z,37.00
2022-11-20T01:28:55.858Z,35.58
2022-11-20T01:31:25.373Z,36.70
2022-11-20T01:33:53.885Z,35.20
2022-11-20T01:36:22.486Z,34.83
2022-11-20T01:38:52.651Z,35.65
2022-11-20T01:41:38.017Z,33.53
2022-11-20T01:44:05.527Z,34.60
2022-11-20T01:46:37.668Z,34.17
2022-11-20T01:49:25.665Z,33.22
2022-11-20T01:51:56.851Z,34.40
2022-11-20T01:54:30.043Z,33.40
2022-11-20T01:56:58.785Z,32.33
2022-11-20T01:59:27.114Z,33.70
2022-11-20T02:01:54.441Z,31.60
2022-11-20T02:04:21.706Z,31.92
2022-11-20T02:09:29.124Z,30.70
2022-11-20T02:11:56.440Z,32.05
2022-11-20T02:14:23.615Z,31.20
2022-11-20T02:16:51.018Z,29.27
2022-11-20T02:19:24.292Z,29.63
2022-11-20T02:22:01.661Z,28.95
2022-11-20T02:24:28.559Z,28.50
2022-11-20T02:26:57.198Z,29.30
2022-11-20T02:29:55.911Z,28.58
2022-11-20T02:32:25.401Z,29.80
2022-11-20T02:34:52.719Z,28.02
2022-11-20T02:37:20.359Z,27.90
2022-11-20T02:39:51.470Z,27.92
2022-11-20T02:42:18.638Z,26.33
2022-11-20T02:44:45.510Z,26.67
2022-11-20T02:47:12.373Z,26.38
2022-11-20T02:49:39.663Z,27.25
2022-11-20T02:52:06.505Z,27.48
2022-11-20T02:54:33.444Z,26.83
2022-11-20T02:57:00.329Z,26.30
2022-11-20T02:59:27.137Z,25.80
2022-11-20T03:01:54.015Z,25.83
2022-11-20T03:04:20.999Z,25.77
2022-11-20T03:06:47.888Z,25.42
2022-11-20T03:09:14.734Z,25.23
2022-11-20T03:11:41.644Z,25.10
2022-11-20T03:14:09.900Z,24.90
2022-11-20T03:16:36.743Z,24.58
2022-11-20T03:19:03.635Z,23.67
2022-11-20T03:21:30.460Z,23.58
2022-11-20T03:23:57.314Z,24.05
2022-11-20T03:26:26.048Z,23.95
2022-11-20T03:28:57.874Z,24.25
2022-11-20T03:31:27.162Z,23.92
2022-11-20T03:33:54.541Z,23.08
2022-11-20T03:36:22.118Z,24.15
2022-11-20T03:38:49.420Z,22.88
2022-11-20T03:41:21.720Z,23.25
2022-11-20T03:44:08.184Z,21.85
2022-11-20T03:46:35.439Z,24.13
2022-11-20T03:49:02.591Z,21.52
2022-11-20T03:51:33.892Z,23.02
2022-11-20T03:54:02.681Z,22.50
2022-11-20T03:56:38.173Z,21.90
2022-11-20T03:59:05.455Z,22.55
2022-11-20T04:01:34.614Z,22.48
2022-11-20T04:04:01.745Z,22.08
2022-11-20T04:06:30.747Z,20.95
2022-11-20T04:08:58.794Z,22.58
2022-11-20T04:11:30.271Z,21.05
2022-11-20T04:13:58.920Z,20.85
2022-11-20T04:16:27.181Z,21.67
2022-11-20T04:18:55.382Z,20.30
2022-11-20T04:21:22.324Z,20.05
2022-11-20T04:23:50.493Z,20.67
2022-11-20T04:26:17.884Z,20.75
2022-11-20T04:28:44.759Z,20.00
2022-11-20T04:31:20.064Z,20.30
2022-11-20T04:33:47.160Z,19.75
2022-11-20T04:36:16.310Z,20.45
2022-11-20T04:38:43.359Z,19.38
2022-11-20T04:41:15.838Z,20.25
2022-11-20T04:43:42.728Z,19.42
2022-11-20T04:46:09.567Z,18.98
2022-11-20T04:48:36.430Z,19.70
2022-11-20T04:51:06.564Z,19.60
2022-11-20T04:53:33.364Z,18.45
2022-11-20T04:56:08.318Z,18.58
2022-11-20T04:58:35.479Z,18.73
2022-11-20T05:01:22.787Z,18.85
2022-11-20T05:03:50.276Z,19.23
2022-11-20T05:06:19.482Z,18.67
2022-11-20T05:08:46.381Z,17.92
2022-11-20T05:11:15.700Z,18.15
2022-11-20T05:13:42.986Z,18.27
2022-11-20T05:16:12.542Z,18.08
2022-11-20T05:18:40.054Z,17.33
2022-11-20T05:21:07.738Z,17.05
2022-11-20T05:23:35.143Z,17.35
2022-11-20T05:26:02.366Z,17.92
2022-11-20T05:28:30.582Z,18.27
2022-11-20T05:30:57.578Z,17.23
2022-11-20T05:33:24.445Z,16.67
2022-11-20T05:35:51.338Z,16.50
2022-11-20T05:38:18.178Z,16.67
2022-11-20T05:40:45.033Z,17.10
2022-11-20T05:43:11.910Z,16.90
2022-11-20T05:45:38.842Z,16.58
2022-11-20T05:48:05.873Z,16.35
2022-11-20T05:50:32.738Z,16.77
2022-11-20T05:53:00.722Z,16.70
2022-11-20T05:55:28.524Z,16.48
2022-11-20T05:57:56.183Z,15.55
2022-11-20T06:00:23.365Z,15.15
2022-11-20T06:02:50.331Z,16.10
2022-11-20T06:05:17.470Z,16.40
2022-11-20T06:07:44.432Z,14.40
2022-11-20T06:10:12.027Z,14.55
2022-11-20T06:12:38.920Z,14.50
2022-11-20T06:15:06.670Z,13.77
2022-11-20T06:17:33.667Z,13.70
2022-11-20T06:20:00.508Z,13.80
2022-11-20T06:22:27.366Z,13.98
2022-11-20T06:24:54.310Z,13.85
2022-11-20T06:27:21.240Z,13.38
2022-11-20T06:29:48.094Z,13.23
2022-11-20T06:32:14.960Z,12.70
2022-11-20T06:34:41.831Z,13.05
2022-11-20T06:37:08.724Z,13.15
2022-11-20T06:39:35.539Z,12.85
2022-11-20T06:42:02.844Z,13.75
2022-11-20T06:44:29.721Z,13.43
2022-11-20T06:46:56.535Z,12.73
2022-11-20T06:49:23.724Z,12.93
2022-11-20T06:51:50.828Z,13.00
2022-11-20T06:54:17.694Z,13.10
2022-11-20T06:56:48.931Z,12.43
2022-11-20T06:59:16.029Z,12.95
2022-11-20T07:01:42.929Z,12.63
2022-11-20T07:04:09.873Z,12.00
2022-11-20T07:06:37.176Z,11.88
2022-11-20T07:09:05.460Z,11.68
2022-11-20T07:11:35.457Z,11.02
2022-11-20T07:14:02.362Z,12.05
2022-11-20T07:16:29.208Z,12.10
2022-11-20T07:18:56.019Z,11.80
2022-11-20T07:21:22.964Z,11.70
2022-11-20T07:23:49.760Z,11.50
2022-11-20T07:26:17.119Z,11.35
2022-11-20T07:28:46.316Z,10.93
2022-11-20T07:31:18.757Z,11.30
2022-11-20T07:33:46.532Z,11.43
2022-11-20T07:36:13.377Z,11.02
2022-11-20T07:38:40.253Z,11.45
2022-11-20T07:41:07.106Z,11.60
2022-11-20T07:43:37.156Z,10.65
2022-11-20T07:46:07.889Z,10.02
2022-11-20T07:48:34.708Z,10.50
2022-11-20T07:51:01.568Z,11.18
2022-11-20T07:53:28.409Z,10.57
2022-11-20T07:55:55.289Z,11.98
2022-11-20T07:58:22.299Z,11.13
2022-11-20T08:00:49.369Z,10.32
2022-11-20T08:03:20.260Z,10.02
2022-11-20T08:05:48.634Z,10.73
2022-11-20T08:08:15.452Z,10.80
2022-11-20T08:10:42.281Z,11.20
2022-11-20T08:13:28.714Z,11.20
2022-11-20T08:15:55.529Z,11.00
2022-11-20T08:18:31.866Z,10.45
2022-11-20T08:21:03.695Z,10.82
2022-11-20T08:23:31.257Z,10.57
2022-11-20T08:25:58.510Z,10.13
2022-11-20T08:28:25.325Z,10.20
2022-11-20T08:30:52.195Z,9.88
2022-11-20T08:33:19.601Z,10.07
2022-11-20T08:35:46.534Z,9.45
2022-11-20T08:38:13.367Z,10.57
2022-11-20T08:40:40.199Z,9.77
2022-11-20T08:43:07.019Z,9.80
2022-11-20T08:45:35.238Z,10.13
2022-11-20T08:48:03.928Z,13.13
2022-11-20T08:50:33.202Z,24.13
2022-11-20T08:53:04.672Z,23.08
2022-11-20T08:55:31.588Z,23.25
2022-11-20T08:57:58.433Z,21.23
2022-11-20T09:00:25.217Z,20.63
2022-11-20T09:02:52.913Z,20.08
2022-11-20T09:05:19.748Z,19.23
2022-11-20T09:07:46.592Z,17.50
2022-11-20T09:10:29.055Z,16.70
2022-11-20T09:12:56.506Z,16.52
2022-11-20T09:15:24.059Z,15.98
2022-11-20T09:17:59.236Z,15.20
2022-11-20T09:20:27.466Z,14.90
2022-11-20T09:22:54.600Z,14.18
2022-11-20T09:25:21.846Z,13.57
2022-11-20T09:27:48.899Z,14.05
2022-11-20T09:30:16.429Z,12.63
2022-11-20T09:32:44.068Z,12.43
2022-11-20T09:35:11.818Z,12.45
2022-11-20T09:37:39.084Z,12.40
2022-11-20T09:40:06.572Z,12.18
2022-11-20T09:42:43.219Z,11.52
2022-11-20T09:45:40.391Z,11.52
2022-11-20T09:48:07.201Z,11.60
2022-11-20T09:50:44.677Z,11.43
2022-11-20T09:53:27.982Z,10.95
2022-11-20T09:55:55.753Z,10.70
2022-11-20T09:58:49.062Z,13.55
2022-11-20T10:01:21.079Z,18.40
2022-11-20T10:04:02.365Z,17.73
2022-11-20T10:06:35.713Z,17.05
2022-11-20T10:09:14.482Z,15.40
2022-11-20T10:11:44.303Z,14.30
2022-11-20T10:17:18.388Z,14.70
2022-11-20T10:20:13.657Z,13.95
2022-11-20T10:23:22.746Z,13.05
2022-11-20T10:26:01.219Z,12.88
2022-11-20T10:28:48.217Z,13.18
2022-11-20T10:31:35.711Z,12.32
2022-11-20T10:34:18.211Z,11.20
2022-11-20T10:37:04.803Z,10.75
2022-11-20T10:39:36.568Z,10.75
2022-11-20T10:42:03.571Z,10.10
2022-11-20T10:44:52.546Z,10.95
2022-11-20T10:47:23.296Z,11.00
2022-11-20T10:49:54.079Z,17.38
2022-11-20T10:52:56.348Z,15.93
2022-11-20T10:55:39.372Z,15.27
2022-11-20T10:58:12.566Z,14.77
2022-11-20T11:00:39.628Z,13.23
2022-11-20T11:03:26.780Z,13.13
2022-11-20T11:06:11.551Z,11.82
2022-11-20T11:08:41.588Z,12.85
2022-11-20T11:11:27.638Z,10.57
2022-11-20T11:13:54.494Z,11.20
2022-11-20T11:16:26.847Z,10.90
2022-11-20T11:19:11.694Z,10.23
2022-11-20T11:21:44.403Z,9.75
2022-11-20T11:27:17.402Z,9.52
2022-11-20T11:29:45.363Z,9.40
2022-11-20T11:32:22.841Z,8.98
2022-11-20T11:35:03.744Z,9.52
2022-11-20T11:40:26.764Z,8.65
2022-11-20T11:42:57.901Z,7.72
2022-11-20T11:45:24.969Z,8.40
2022-11-20T11:47:52.789Z,8.18
2022-11-20T11:50:22.868Z,7.80
2022-11-20T11:53:11.429Z,8.10
2022-11-20T11:56:04.231Z,8.15
2022-11-20T12:01:39.421Z,7.70
2022-11-20T12:04:22.091Z,7.32
2022-11-20T12:06:57.438Z,6.55
2022-11-20T12:09:36.288Z,6.97
2022-11-20T12:12:28.731Z,6.90
2022-11-20T12:14:56.821Z,6.95
2022-11-20T12:17:23.853Z,6.38
2022-11-20T12:19:50.739Z,6.70
2022-11-20T12:22:17.544Z,6.85
2022-11-20T12:24:56.769Z,6.47
2022-11-20T12:27:45.623Z,6.47
2022-11-20T12:30:20.057Z,6.23
2022-11-20T12:33:02.522Z,6.43
2022-11-20T12:35:32.438Z,6.40
2022-11-20T12:38:26.755Z,6.10
2022-11-20T12:41:14.770Z,5.80
2022-11-20T12:44:25.821Z,5.70
2022-11-20T12:47:12.846Z,6.05
2022-11-20T12:49:54.156Z,6.25
2022-11-20T12:52:30.393Z,5.95
2022-11-20T12:55:05.126Z,5.97
2022-11-20T12:57:50.850Z,5.95
2022-11-20T13:00:22.771Z,5.60
2022-11-20T13:03:14.441Z,5.57
2022-11-20T13:05:58.944Z,5.82
2022-11-20T13:08:26.751Z,5.35
2022-11-20T13:11:11.225Z,6.22
2022-11-20T13:13:53.419Z,5.57
2022-11-20T13:16:47.655Z,5.97
2022-11-20T13:19:16.641Z,5.50
2022-11-20T13:21:52.428Z,5.40
2022-11-20T13:24:27.059Z,5.20
2022-11-20T13:27:07.213Z,5.28
2022-11-20T13:29:38.709Z,4.75
2022-11-20T13:32:16.183Z,4.97
2022-11-20T13:35:04.192Z,5.10
2022-11-20T13:37:36.488Z,4.55
2022-11-20T13:40:23.943Z,4.80
2022-11-20T13:43:16.110Z,4.82
2022-11-20T13:45:43.005Z,4.68
2022-11-20T13:48:24.612Z,4.80
2022-11-20T13:51:00.045Z,4.57
2022-11-20T13:53:48.754Z,4.60
2022-11-20T13:56:46.010Z,4.35
2022-11-20T13:59:34.339Z,5.57
2022-11-20T14:02:01.649Z,6.55
2022-11-20T14:04:34.138Z,10.75
2022-11-20T14:07:01.028Z,9.27
2022-11-20T14:09:33.050Z,8.48
2022-11-20T14:12:00.263Z,8.73
2022-11-20T14:14:31.903Z,7.95
2022-11-20T14:17:26.263Z,8.15
2022-11-20T14:19:54.119Z,7.97
2022-11-20T14:22:28.321Z,7.10
2022-11-20T14:25:13.132Z,7.95
2022-11-20T14:27:46.080Z,10.10
2022-11-20T14:30:15.788Z,12.18
2022-11-20T14:35:11.432Z,11.18
2022-11-20T14:37:40.738Z,11.27
2022-11-20T14:40:39.225Z,10.77
2022-11-20T14:43:23.053Z,11.60
2022-11-20T14:46:02.413Z,13.18
2022-11-20T14:51:42.278Z,13.45
2022-11-20T14:54:27.106Z,14.23
2022-11-20T14:56:58.083Z,13.77
2022-11-20T14:59:29.329Z,12.70
2022-11-20T15:02:00.692Z,13.50
2022-11-20T15:04:28.055Z,12.90
2022-11-20T15:06:57.055Z,13.00
2022-11-20T15:09:24.081Z,11.80
2022-11-20T15:11:59.381Z,12.38
2022-11-20T15:14:27.529Z,11.93
2022-11-20T15:16:54.710Z,12.15
2022-11-20T15:19:26.258Z,9.90
2022-11-20T15:21:53.172Z,10.43
2022-11-20T15:24:21.149Z,9.30
2022-11-20T15:26:48.741Z,8.68
2022-11-20T15:29:20.297Z,7.97
2022-11-20T15:31:47.277Z,8.32
2022-11-20T15:34:17.183Z,8.35
2022-11-20T15:36:44.605Z,8.32
2022-11-20T15:39:12.618Z,7.40
2022-11-20T15:41:40.272Z,6.75
2022-11-20T15:44:07.359Z,6.90
2022-11-20T15:46:39.524Z,6.55
2022-11-20T15:49:06.957Z,5.82
2022-11-20T15:51:39.359Z,6.03
2022-11-20T15:54:15.296Z,5.88
2022-11-20T15:56:43.065Z,5.15
2022-11-20T15:59:09.987Z,5.95
2022-11-20T16:01:37.342Z,5.63
2022-11-20T16:04:06.029Z,5.55
2022-11-20T16:06:32.879Z,7.10
2022-11-20T16:08:59.698Z,11.23
2022-11-20T16:11:26.523Z,9.98
2022-11-20T16:14:11.825Z,8.93
2022-11-20T16:16:40.204Z,8.30
2022-11-20T16:19:07.263Z,8.27
2022-11-20T16:21:34.145Z,7.43
2022-11-20T16:24:03.144Z,7.25
2022-11-20T16:26:30.490Z,7.10
2022-11-20T16:28:57.502Z,6.43
2022-11-20T16:31:24.366Z,5.82
2022-11-20T16:33:57.699Z,6.65
2022-11-20T16:36:26.385Z,5.78
2022-11-20T16:38:54.460Z,5.37
2022-11-20T16:41:21.661Z,5.22
2022-11-20T16:43:49.427Z,5.18
2022-11-20T16:46:17.138Z,5.07
2022-11-20T16:48:44.048Z,4.90
2022-11-20T16:51:12.259Z,4.40
2022-11-20T16:53:39.871Z,4.60
2022-11-20T16:56:13.504Z,4.47
2022-11-20T16:58:40.512Z,4.05
2022-11-20T17:01:12.221Z,6.47
2022-11-20T17:03:40.001Z,7.20
2022-11-20T17:06:13.456Z,9.63
2022-11-20T17:08:40.582Z,9.23
2022-11-20T17:11:08.606Z,9.77
2022-11-20T17:13:39.797Z,7.10
2022-11-20T17:16:15.819Z,7.72
2022-11-20T17:18:44.094Z,7.40
2022-11-20T17:21:11.713Z,7.50
2022-11-20T17:23:43.207Z,5.93
2022-11-20T17:26:19.378Z,6.32
2022-11-20T17:28:47.680Z,5.82
2022-11-20T17:31:16.720Z,5.88
2022-11-20T17:33:45.650Z,5.03
2022-11-20T17:36:14.429Z,5.00
2022-11-20T17:38:41.503Z,4.88
2022-11-20T17:41:17.366Z,4.90
2022-11-20T17:43:44.652Z,4.70
2022-11-20T17:46:17.225Z,4.40
2022-11-20T17:48:44.855Z,4.65
2022-11-20T17:51:19.835Z,4.70
2022-11-20T17:53:52.216Z,4.60
2022-11-20T17:56:37.987Z,5.05
2022-11-20T17:59:06.345Z,4.35
2022-11-20T18:01:33.332Z,4.93
2022-11-20T18:04:00.315Z,5.85
2022-11-20T18:06:28.166Z,4.90
2022-11-20T18:08:55.233Z,4.80
2022-11-20T18:11:24.021Z,5.35
2022-11-20T18:14:12.017Z,5.18
2022-11-20T18:17:00.873Z,4.75
2022-11-20T18:19:32.737Z,5.20
2022-11-20T18:22:01.822Z,4.43
2022-11-20T18:24:28.920Z,4.97
2022-11-20T18:26:55.896Z,4.35
2022-11-20T18:29:22.990Z,4.68
2022-11-20T18:31:50.069Z,4.20
2022-11-20T18:34:16.940Z,5.20
2022-11-20T18:36:45.320Z,4.10
2022-11-20T18:39:13.149Z,3.92
2022-11-20T18:41:59.077Z,4.22
2022-11-20T18:44:47.019Z,4.07
2022-11-20T18:47:16.909Z,4.03
2022-11-20T18:49:51.102Z,4.03
2022-11-20T18:52:23.025Z,3.88
2022-11-20T18:54:50.362Z,4.05
2022-11-20T18:57:22.440Z,3.83
2022-11-20T18:59:49.500Z,4.05
2022-11-20T19:02:18.200Z,3.90
2022-11-20T19:04:45.219Z,3.37
2022-11-20T19:07:12.395Z,5.68
2022-11-20T19:09:43.485Z,8.40
2022-11-20T19:12:11.870Z,12.10
2022-11-20T19:14:38.755Z,13.88
2022-11-20T19:17:06.983Z,12.35
2022-11-20T19:19:34.934Z,11.43
2022-11-20T19:22:01.896Z,9.32
2022-11-20T19:24:28.927Z,9.15
2022-11-20T19:26:56.281Z,8.38
2022-11-20T19:29:24.189Z,7.40
2022-11-20T19:31:51.260Z,7.03
2022-11-20T19:34:18.305Z,6.72
2022-11-20T19:36:45.605Z,6.03
2022-11-20T19:39:12.851Z,6.03
2022-11-20T19:41:40.550Z,5.90
2022-11-20T19:44:12.658Z,5.13
2022-11-20T19:46:40.162Z,5.20
2022-11-20T19:49:10.262Z,5.50
2022-11-20T19:51:38.708Z,4.50
2022-11-20T19:54:05.985Z,4.85
2022-11-20T19:56:33.474Z,5.13
2022-11-20T19:59:00.848Z,4.50
2022-11-20T20:01:30.045Z,4.75
2022-11-20T20:04:01.454Z,4.45
2022-11-20T20:06:28.929Z,4.43
2022-11-20T20:09:03.870Z,4.50
2022-11-20T20:11:32.936Z,4.75
2022-11-20T20:14:13.621Z,4.13
2022-11-20T20:16:40.824Z,4.30
2022-11-20T20:19:07.682Z,3.97
2022-11-20T20:21:35.474Z,4.20
2022-11-20T20:24:02.417Z,4.40
2022-11-20T20:26:31.563Z,3.88
2022-11-20T20:28:58.980Z,3.92
2022-11-20T20:31:28.741Z,4.10
2022-11-20T20:33:55.967Z,3.67
2022-11-20T20:36:24.080Z,3.65
2022-11-20T20:38:59.771Z,4.05
2022-11-20T20:41:26.891Z,4.10
2022-11-20T20:44:12.355Z,3.80
2022-11-20T20:46:39.777Z,7.80
2022-11-20T20:49:07.463Z,10.52
2022-11-20T20:51:34.829Z,10.73
2022-11-20T20:54:01.673Z,9.45
2022-11-20T20:56:28.522Z,8.32
2022-11-20T20:58:55.403Z,7.45
2022-11-20T21:01:23.000Z,6.82
2022-11-20T21:03:49.965Z,6.47
2022-11-20T21:06:17.102Z,5.85
2022-11-20T21:08:44.835Z,5.05
2022-11-20T21:11:16.696Z,5.72
2022-11-20T21:13:44.875Z,5.15
2022-11-20T21:16:13.057Z,4.90
2022-11-20T21:18:40.060Z,4.57
2022-11-20T21:21:26.812Z,4.18
2022-11-20T21:23:53.875Z,4.28
2022-11-20T21:26:21.081Z,3.83
2022-11-20T21:28:48.095Z,4.30
2022-11-20T21:31:18.505Z,4.07
2022-11-20T21:33:46.587Z,3.85
2022-11-20T21:36:18.297Z,4.28
2022-11-20T21:38:45.850Z,4.10
2022-11-20T21:41:13.832Z,3.50
2022-11-20T21:43:42.668Z,3.75
2022-11-20T21:46:11.796Z,3.90
2022-11-20T21:48:40.042Z,4.22
2022-11-20T21:51:20.697Z,4.05
2022-11-20T21:53:48.641Z,3.78
2022-11-20T21:56:20.367Z,3.83
2022-11-20T21:58:48.066Z,3.65
2022-11-20T22:01:25.839Z,3.72
2022-11-20T22:04:01.038Z,3.47
2022-11-20T22:06:32.739Z,3.78
2022-11-20T22:09:00.171Z,3.58
2022-11-20T22:11:27.117Z,3.55
2022-11-20T22:14:12.441Z,3.08
2022-11-20T22:16:39.418Z,3.17
2022-11-20T22:19:06.770Z,3.65
2022-11-20T22:21:34.326Z,3.47
2022-11-20T22:24:01.487Z,3.25
2022-11-20T22:26:39.668Z,3.30
2022-11-20T22:29:07.095Z,3.40
2022-11-20T22:31:33.979Z,3.25
2022-11-20T22:34:02.742Z,3.80
2022-11-20T22:36:30.983Z,10.57
2022-11-20T22:38:58.602Z,16.83
2022-11-20T22:41:27.739Z,14.32
2022-11-20T22:44:01.237Z,13.15
2022-11-20T22:46:30.024Z,10.40
2022-11-20T22:48:58.600Z,9.03
2022-11-20T22:51:27.739Z,8.57
2022-11-20T22:53:54.881Z,7.30
2022-11-20T22:56:22.357Z,8.10
2022-11-20T22:58:51.030Z,6.65
2022-11-20T23:01:20.078Z,6.65
2022-11-20T23:03:49.522Z,6.38
2022-11-20T23:06:17.163Z,6.20
2022-11-20T23:08:44.038Z,5.10
2022-11-20T23:11:22.326Z,4.95
2022-11-20T23:13:58.051Z,4.60
2022-11-20T23:16:27.091Z,4.78
2022-11-20T23:19:01.389Z,4.40
2022-11-20T23:21:28.528Z,5.05
2022-11-20T23:23:57.586Z,4.10
2022-11-20T23:26:27.054Z,4.10
2022-11-20T23:28:56.249Z,3.95
2022-11-20T23:31:23.737Z,4.00
2022-11-20T23:33:50.864Z,3.42
2022-11-20T23:36:18.271Z,3.58
2022-11-20T23:38:45.130Z,4.00
2022-11-20T23:41:12.711Z,4.07
2022-11-20T23:43:39.738Z,3.55
2022-11-20T23:46:07.047Z,5.20
2022-11-20T23:48:35.850Z,15.65
2022-11-20T23:51:03.699Z,16.97
2022-11-20T23:53:31.103Z,14.30
2022-11-20T23:56:01.639Z,12.15
2022-11-20T23:58:37.965Z,9.07
